createdAt,value
2023-04-10T00:01:43.010Z,52.00
2023-04-10T00:04:10.744Z,52.13
2023-04-10T00:06:38.394Z,51.68
2023-04-10T00:09:07.221Z,52.31
2023-04-10T00:11:34.967Z,52.25
2023-04-10T00:14:02.500Z,51.71
2023-04-10T00:16:30.042Z,51.58
2023-04-10T00:18:57.582Z,51.25
2023-04-10T00:21:25.035Z,51.59
2023-04-10T00:23:52.898Z,52.04
2023-04-10T00:26:23.680Z,52.20
2023-04-10T00:28:51.168Z,52.17
2023-04-10T00:31:18.641Z,52.13
2023-04-10T00:33:46.108Z,52.31
2023-04-10T00:36:13.593Z,52.11
2023-04-10T00:38:41.399Z,52.04
2023-04-10T00:41:08.876Z,51.71
2023-04-10T00:43:37.723Z,52.05
2023-04-10T00:46:06.854Z,51.82
2023-04-10T00:48:34.667Z,52.83
2023-04-10T00:51:02.527Z,51.87
2023-04-10T00:53:30.171Z,52.63
2023-04-10T00:55:58.648Z,52.20
2023-04-10T00:58:26.776Z,52.01
2023-04-10T01:00:56.558Z,51.55
2023-04-10T01:03:25.568Z,51.50
2023-04-10T01:06:05.474Z,50.95
2023-04-10T01:08:40.436Z,51.26
2023-04-10T01:11:14.375Z,51.25
2023-04-10T01:13:49.657Z,50.81
2023-04-10T01:16:21.386Z,50.31
2023-04-10T01:18:54.320Z,50.76
2023-04-10T01:21:23.852Z,51.18
2023-04-10T01:24:02.947Z,50.83
2023-04-10T01:26:43.034Z,50.48
2023-04-10T01:29:19.585Z,50.56
2023-04-10T01:31:53.248Z,50.19
2023-04-10T01:34:24.027Z,49.70
2023-04-10T01:36:56.116Z,49.59
2023-04-10T01:39:24.842Z,49.68
2023-04-10T01:41:54.583Z,50.12
2023-04-10T01:44:26.592Z,49.50
2023-04-10T01:46:55.047Z,49.77
2023-04-10T01:49:24.696Z,50.19
2023-04-10T01:51:54.207Z,50.22
2023-04-10T01:54:22.007Z,50.48
2023-04-10T01:56:49.542Z,50.69
2023-04-10T01:59:17.297Z,50.70
2023-04-10T02:01:46.379Z,50.62
2023-04-10T02:04:13.977Z,50.33
2023-04-10T02:06:51.267Z,50.15
2023-04-10T02:09:22.827Z,50.18
2023-04-10T02:11:55.727Z,49.93
2023-04-10T02:14:25.850Z,49.82
2023-04-10T02:16:57.190Z,50.04
2023-04-10T02:19:26.443Z,49.43
2023-04-10T02:21:54.945Z,50.19
2023-04-10T02:24:23.166Z,49.87
2023-04-10T02:26:51.822Z,49.70
2023-04-10T02:29:19.942Z,49.71
2023-04-10T02:31:47.543Z,49.88
2023-04-10T02:34:16.456Z,49.96
2023-04-10T02:36:43.880Z,50.32
2023-04-10T02:39:11.328Z,50.05
2023-04-10T02:41:38.829Z,49.91
2023-04-10T02:44:06.807Z,49.94
2023-04-10T02:46:34.365Z,50.09
2023-04-10T02:49:01.975Z,49.96
2023-04-10T02:51:30.892Z,50.08
2023-04-10T02:53:58.379Z,50.03
2023-04-10T02:56:27.092Z,49.97
2023-04-10T02:58:54.553Z,49.80
2023-04-10T03:01:22.174Z,49.62
2023-04-10T03:03:49.760Z,49.38
2023-04-10T03:06:17.313Z,49.58
2023-04-10T03:08:46.166Z,49.25
2023-04-10T03:11:13.643Z,48.92
2023-04-10T03:13:41.455Z,49.57
2023-04-10T03:16:09.024Z,49.10
2023-04-10T03:18:36.625Z,49.11
2023-04-10T03:21:04.175Z,48.76
2023-04-10T03:23:31.622Z,48.63
2023-04-10T03:26:00.652Z,49.09
2023-04-10T03:28:29.636Z,48.95
2023-04-10T03:30:57.594Z,49.19
2023-04-10T03:33:25.338Z,48.59
2023-04-10T03:35:53.598Z,49.10
2023-04-10T03:38:21.107Z,48.59
2023-04-10T03:40:48.531Z,49.17
2023-04-10T03:43:17.306Z,49.03
2023-04-10T03:45:44.741Z,48.47
2023-04-10T03:48:12.235Z,48.97
2023-04-10T03:50:39.854Z,49.13
2023-04-10T03:53:07.406Z,48.62
2023-04-10T03:55:34.835Z,48.83
2023-04-10T03:58:02.267Z,49.07
2023-04-10T04:00:31.112Z,48.55
2023-04-10T04:03:00.855Z,49.10
2023-04-10T04:05:28.465Z,49.13
2023-04-10T04:07:55.894Z,49.16
2023-04-10T04:10:23.901Z,49.11
2023-04-10T04:12:51.396Z,49.12
2023-04-10T04:15:18.985Z,49.18
2023-04-10T04:17:47.820Z,49.24
2023-04-10T04:20:15.703Z,49.69
2023-04-10T04:22:43.125Z,49.08
2023-04-10T04:25:11.371Z,49.32
2023-04-10T04:27:39.102Z,49.63
2023-04-10T04:30:07.958Z,50.01
2023-04-10T04:32:35.423Z,49.97
2023-04-10T04:35:04.411Z,50.09
2023-04-10T04:37:31.896Z,49.89
2023-04-10T04:39:59.324Z,50.11
2023-04-10T04:42:26.766Z,49.90
2023-04-10T04:44:54.211Z,49.70
2023-04-10T04:47:22.241Z,49.44
2023-04-10T04:49:49.822Z,49.80
2023-04-10T04:52:18.626Z,49.82
2023-04-10T04:54:46.049Z,49.57
2023-04-10T04:57:13.476Z,49.45
2023-04-10T04:59:40.884Z,49.30
2023-04-10T05:02:08.394Z,48.75
2023-04-10T05:04:36.019Z,48.97
2023-04-10T05:07:03.458Z,49.36
2023-04-10T05:09:32.233Z,49.07
2023-04-10T05:12:00.149Z,51.96
2023-04-10T05:14:27.619Z,51.21
2023-04-10T05:16:55.204Z,51.40
2023-04-10T05:19:22.624Z,53.43
2023-04-10T05:21:50.080Z,52.77
2023-04-10T05:24:17.525Z,50.29
2023-04-10T05:26:46.606Z,51.60
2023-04-10T05:29:14.148Z,49.54
2023-04-10T05:31:41.565Z,48.64
2023-04-10T05:34:09.007Z,48.77
2023-04-10T05:36:36.652Z,48.68
2023-04-10T05:39:04.205Z,48.26
2023-04-10T05:41:31.736Z,47.93
2023-04-10T05:44:00.541Z,47.74
2023-04-10T05:46:28.073Z,47.53
2023-04-10T05:48:55.855Z,48.10
2023-04-10T05:51:23.524Z,47.79
2023-04-10T05:53:51.814Z,48.17
2023-04-10T05:56:19.359Z,47.98
2023-04-10T05:58:46.822Z,47.70
2023-04-10T06:01:15.641Z,47.85
2023-04-10T06:03:43.260Z,48.16
2023-04-10T06:06:10.833Z,48.21
2023-04-10T06:08:38.315Z,47.84
2023-04-10T06:11:06.229Z,47.68
2023-04-10T06:13:33.738Z,47.17
2023-04-10T06:16:01.439Z,47.79
2023-04-10T06:18:30.309Z,47.09
2023-04-10T06:21:01.680Z,46.58
2023-04-10T06:23:29.375Z,47.26
2023-04-10T06:25:57.070Z,47.56
2023-04-10T06:28:24.726Z,47.57
2023-04-10T06:30:52.240Z,46.64
2023-04-10T06:33:19.694Z,46.82
2023-04-10T06:35:48.549Z,46.80
2023-04-10T06:38:16.148Z,47.50
2023-04-10T06:40:43.610Z,47.27
2023-04-10T06:43:11.218Z,47.13
2023-04-10T06:45:38.662Z,47.11
2023-04-10T06:48:06.733Z,47.10
2023-04-10T06:50:34.258Z,47.18
2023-04-10T06:53:03.002Z,45.96
2023-04-10T06:55:30.587Z,46.55
2023-04-10T06:57:58.109Z,46.67
2023-04-10T07:00:26.333Z,46.40
2023-04-10T07:02:53.835Z,45.62
2023-04-10T07:05:22.260Z,46.01
2023-04-10T07:07:50.587Z,45.31
2023-04-10T07:10:19.650Z,45.91
2023-04-10T07:12:47.254Z,45.84
2023-04-10T07:15:14.677Z,45.95
2023-04-10T07:17:42.435Z,44.67
2023-04-10T07:20:10.999Z,45.06
2023-04-10T07:22:38.460Z,45.57
2023-04-10T07:25:07.149Z,43.80
2023-04-10T07:27:35.951Z,43.99
2023-04-10T07:30:03.434Z,43.57
2023-04-10T07:32:32.462Z,44.68
2023-04-10T07:35:00.094Z,44.47
2023-04-10T07:37:27.686Z,43.95
2023-04-10T07:39:55.287Z,42.22
2023-04-10T07:42:22.969Z,43.07
2023-04-10T07:44:51.913Z,42.78
2023-04-10T07:47:19.438Z,43.17
2023-04-10T07:49:46.903Z,41.91
2023-04-10T07:52:14.385Z,42.82
2023-04-10T07:54:41.896Z,42.72
2023-04-10T07:57:09.338Z,42.23
2023-04-10T07:59:36.788Z,41.40
2023-04-10T08:02:05.633Z,41.51
2023-04-10T08:04:33.450Z,41.26
2023-04-10T08:07:01.096Z,41.57
2023-04-10T08:09:28.625Z,41.06
2023-04-10T08:11:57.713Z,41.01
2023-04-10T08:14:25.289Z,41.03
2023-04-10T08:16:52.859Z,41.62
2023-04-10T08:19:21.628Z,41.14
2023-04-10T08:21:49.057Z,41.49
2023-04-10T08:24:19.687Z,40.78
2023-04-10T08:26:47.129Z,41.24
2023-04-10T08:29:14.695Z,40.11
2023-04-10T08:31:42.349Z,40.61
2023-04-10T08:34:09.779Z,41.54
2023-04-10T08:36:38.544Z,41.29
2023-04-10T08:39:05.980Z,40.85
2023-04-10T08:41:33.747Z,41.09
2023-04-10T08:44:01.221Z,40.38
2023-04-10T08:46:32.070Z,40.48
2023-04-10T08:49:03.011Z,39.87
2023-04-10T08:51:36.859Z,39.94
2023-04-10T08:54:08.216Z,40.12
2023-04-10T08:56:37.070Z,39.42
2023-04-10T08:59:06.267Z,38.82
2023-04-10T09:01:34.826Z,38.89
2023-04-10T09:04:02.490Z,38.75
2023-04-10T09:06:31.357Z,38.23
2023-04-10T09:12:00.358Z,35.96
2023-04-10T09:14:30.517Z,36.23
2023-04-10T09:17:12.807Z,35.99
2023-04-10T09:19:40.283Z,36.20
2023-04-10T09:22:07.839Z,34.99
2023-04-10T09:24:37.263Z,34.88
2023-04-10T09:27:06.589Z,35.29
2023-04-10T09:29:42.820Z,34.62
2023-04-10T09:32:10.460Z,35.15
2023-04-10T09:34:54.638Z,35.17
2023-04-10T09:37:22.714Z,34.86
2023-04-10T09:39:50.640Z,35.68
2023-04-10T09:42:31.296Z,35.16
2023-04-10T09:44:59.040Z,35.26
2023-04-10T09:47:27.116Z,34.22
2023-04-10T09:49:56.299Z,33.65
2023-04-10T09:52:26.254Z,33.97
2023-04-10T09:54:54.204Z,33.47
2023-04-10T09:57:24.599Z,34.11
2023-04-10T09:59:53.663Z,33.90
2023-04-10T10:02:22.930Z,34.26
2023-04-10T10:04:52.037Z,34.37
2023-04-10T10:07:21.498Z,34.44
2023-04-10T10:09:50.791Z,34.73
2023-04-10T10:12:23.887Z,34.19
2023-04-10T10:14:58.363Z,33.90
2023-04-10T10:17:32.760Z,33.78
2023-04-10T10:20:05.545Z,34.45
2023-04-10T10:22:33.679Z,33.83
2023-04-10T10:25:01.993Z,32.76
2023-04-10T10:27:31.688Z,32.62
2023-04-10T10:30:05.478Z,33.16
2023-04-10T10:32:41.907Z,32.90
2023-04-10T10:35:11.046Z,32.68
2023-04-10T10:37:39.300Z,33.34
2023-04-10T10:40:13.541Z,33.24
2023-04-10T10:42:46.533Z,33.56
2023-04-10T10:45:19.423Z,33.96
2023-04-10T10:47:50.419Z,33.44
2023-04-10T10:50:22.238Z,32.90
2023-04-10T10:52:52.924Z,33.26
2023-04-10T10:55:38.680Z,34.18
2023-04-10T10:58:07.848Z,33.51
2023-04-10T11:01:14.953Z,33.73
2023-04-10T11:03:44.735Z,32.99
2023-04-10T11:06:13.631Z,32.79
2023-04-10T11:08:46.810Z,32.95
2023-04-10T11:11:19.992Z,32.35
2023-04-10T11:14:21.366Z,32.44
2023-04-10T11:16:49.228Z,32.26
2023-04-10T11:19:22.691Z,31.87
2023-04-10T11:22:05.838Z,32.76
2023-04-10T11:25:03.006Z,31.59
2023-04-10T11:27:49.099Z,32.53
2023-04-10T11:30:30.975Z,32.23
2023-04-10T11:33:00.278Z,32.35
2023-04-10T11:35:31.210Z,32.57
2023-04-10T11:38:17.029Z,32.85
2023-04-10T11:41:11.879Z,32.17
2023-04-10T11:43:39.597Z,31.92
2023-04-10T11:46:08.501Z,31.54
2023-04-10T11:48:37.758Z,31.18
2023-04-10T11:51:11.542Z,31.76
2023-04-10T11:53:39.586Z,31.21
2023-04-10T11:56:15.778Z,31.91
2023-04-10T11:58:43.351Z,32.25
2023-04-10T12:01:14.185Z,32.32
2023-04-10T12:03:43.001Z,32.32
2023-04-10T12:06:14.124Z,32.53
2023-04-10T12:08:45.176Z,31.24
2023-04-10T12:11:13.856Z,31.24
2023-04-10T12:13:41.346Z,31.37
2023-04-10T12:16:10.741Z,30.87
2023-04-10T12:18:39.078Z,30.78
2023-04-10T12:21:08.637Z,31.58
2023-04-10T12:23:41.147Z,30.23
2023-04-10T12:26:14.136Z,30.51
2023-04-10T12:28:43.214Z,31.01
2023-04-10T12:31:11.040Z,30.79
2023-04-10T12:33:38.558Z,31.35
2023-04-10T12:36:06.469Z,31.16
2023-04-10T12:38:39.547Z,30.63
2023-04-10T12:41:08.417Z,30.71
2023-04-10T12:43:37.175Z,30.33
2023-04-10T12:46:06.448Z,30.44
2023-04-10T12:48:34.154Z,29.84
2023-04-10T12:51:02.652Z,29.49
2023-04-10T12:53:30.251Z,28.73
2023-04-10T12:56:01.907Z,28.78
2023-04-10T12:58:31.252Z,28.23
2023-04-10T13:01:03.315Z,27.50
2023-04-10T13:03:31.809Z,28.43
2023-04-10T13:05:59.759Z,27.73
2023-04-10T13:08:27.217Z,27.65
2023-04-10T13:10:54.937Z,27.57
2023-04-10T13:13:23.796Z,27.83
2023-04-10T13:15:51.279Z,27.42
2023-04-10T13:18:18.997Z,27.43
2023-04-10T13:20:46.447Z,28.05
2023-04-10T13:23:13.981Z,28.33
2023-04-10T13:25:42.790Z,27.59
2023-04-10T13:28:11.163Z,27.62
2023-04-10T13:30:41.608Z,27.57
2023-04-10T13:33:10.344Z,27.78
2023-04-10T13:35:38.070Z,26.91
2023-04-10T13:38:05.596Z,26.97
2023-04-10T13:40:33.256Z,27.50
2023-04-10T13:43:00.858Z,27.37
2023-04-10T13:45:28.391Z,27.93
2023-04-10T13:47:57.245Z,27.85
2023-04-10T13:50:24.877Z,27.31
2023-04-10T13:52:53.612Z,28.32
2023-04-10T13:55:21.316Z,27.90
2023-04-10T13:57:48.803Z,28.01
2023-04-10T14:00:16.789Z,28.73
2023-04-10T14:02:44.413Z,28.78
2023-04-10T14:05:13.509Z,28.32
2023-04-10T14:07:40.982Z,29.21
2023-04-10T14:10:09.740Z,28.84
2023-04-10T14:12:37.956Z,29.81
2023-04-10T14:15:06.577Z,29.90
2023-04-10T14:17:34.727Z,30.22
2023-04-10T14:20:02.356Z,29.69
2023-04-10T14:22:31.627Z,30.04
2023-04-10T14:25:11.582Z,30.33
2023-04-10T14:27:39.690Z,30.48
2023-04-10T14:30:08.638Z,31.27
2023-04-10T14:32:36.395Z,30.75
2023-04-10T14:35:03.977Z,30.65
2023-04-10T14:37:33.117Z,31.00
2023-04-10T14:40:00.673Z,31.08
2023-04-10T14:42:29.201Z,30.94
2023-04-10T14:44:58.660Z,32.38
2023-04-10T14:47:26.214Z,32.21
2023-04-10T14:49:53.700Z,32.18
2023-04-10T14:52:21.138Z,32.35
2023-04-10T14:54:49.960Z,32.47
2023-04-10T14:57:17.424Z,32.56
2023-04-10T14:59:45.221Z,32.46
2023-04-10T15:02:12.696Z,32.55
2023-04-10T15:04:40.529Z,32.59
2023-04-10T15:07:08.032Z,32.94
2023-04-10T15:09:35.520Z,33.00
2023-04-10T15:12:04.982Z,33.15
2023-04-10T15:14:32.508Z,33.42
2023-04-10T15:17:00.112Z,33.35
2023-04-10T15:19:27.708Z,34.03
2023-04-10T15:21:55.917Z,33.12
2023-04-10T15:24:23.459Z,33.75
2023-04-10T15:26:51.092Z,34.29
2023-04-10T15:29:19.947Z,33.95
2023-04-10T15:31:47.398Z,33.79
2023-04-10T15:34:14.887Z,33.67
2023-04-10T15:36:42.350Z,34.36
2023-04-10T15:39:09.820Z,34.13
2023-04-10T15:41:37.259Z,33.95
2023-04-10T15:44:04.960Z,34.44
2023-04-10T15:46:34.056Z,34.16
2023-04-10T15:49:01.886Z,34.13
2023-04-10T15:51:29.419Z,34.68
2023-04-10T15:53:57.030Z,35.22
2023-04-10T15:56:24.546Z,34.75
2023-04-10T15:58:51.982Z,34.21
2023-04-10T16:01:19.425Z,34.23
2023-04-10T16:03:49.212Z,34.50
2023-04-10T16:06:16.833Z,34.45
2023-04-10T16:08:44.326Z,34.56
2023-04-10T16:11:11.779Z,33.99
2023-04-10T16:13:42.306Z,33.61
2023-04-10T16:16:15.023Z,33.96
2023-04-10T16:18:44.322Z,33.74
2023-04-10T16:21:14.154Z,33.72
2023-04-10T16:23:41.591Z,33.52
2023-04-10T16:26:09.024Z,33.15
2023-04-10T16:28:36.569Z,32.82
2023-04-10T16:31:04.303Z,33.19
2023-04-10T16:33:31.741Z,33.17
2023-04-10T16:35:59.201Z,33.45
2023-04-10T16:38:28.021Z,32.68
2023-04-10T16:40:58.731Z,32.80
2023-04-10T16:43:26.172Z,32.86
2023-04-10T16:45:56.091Z,33.13
2023-04-10T16:48:23.648Z,33.69
2023-04-10T16:50:51.112Z,33.34
2023-04-10T16:53:18.909Z,33.99
2023-04-10T16:55:47.791Z,34.19
2023-04-10T16:58:15.279Z,34.94
2023-04-10T17:00:42.805Z,35.23
2023-04-10T17:03:10.274Z,35.88
2023-04-10T17:05:38.099Z,36.79
2023-04-10T17:08:06.367Z,37.45
2023-04-10T17:10:33.903Z,37.81
2023-04-10T17:13:02.723Z,38.52
2023-04-10T17:15:30.346Z,40.15
2023-04-10T17:17:57.862Z,40.90
2023-04-10T17:20:25.536Z,41.50
2023-04-10T17:22:53.010Z,42.60
2023-04-10T17:25:20.487Z,42.89
2023-04-10T17:27:47.973Z,43.72
2023-04-10T17:30:16.887Z,45.08
2023-04-10T17:32:44.438Z,45.99
2023-04-10T17:35:11.913Z,46.13
2023-04-10T17:37:39.372Z,46.35
2023-04-10T17:40:08.359Z,45.45
2023-04-10T17:42:35.830Z,45.97
2023-04-10T17:45:03.322Z,47.79
2023-04-10T17:47:32.647Z,49.13
2023-04-10T17:50:00.249Z,49.46
2023-04-10T17:52:27.798Z,50.02
2023-04-10T17:54:55.448Z,49.52
2023-04-10T17:57:23.030Z,49.76
2023-04-10T17:59:50.621Z,49.26
2023-04-10T18:02:18.172Z,48.77
2023-04-10T18:04:47.089Z,48.49
2023-04-10T18:07:14.557Z,49.11
2023-04-10T18:09:42.505Z,48.36
2023-04-10T18:12:10.638Z,48.76
2023-04-10T18:14:38.132Z,49.12
2023-04-10T18:17:05.754Z,50.44
2023-04-10T18:19:33.288Z,50.56
2023-04-10T18:22:02.127Z,50.49
2023-04-10T18:24:29.627Z,51.85
2023-04-10T18:26:57.142Z,52.38
2023-04-10T18:29:26.153Z,52.34
2023-04-10T18:31:53.642Z,53.44
2023-04-10T18:34:21.125Z,53.59
2023-04-10T18:36:48.606Z,53.99
2023-04-10T18:39:17.441Z,54.23
2023-04-10T18:41:44.956Z,54.46
2023-04-10T18:44:12.420Z,54.52
2023-04-10T18:46:42.645Z,54.19
2023-04-10T18:49:12.294Z,54.86
2023-04-10T18:51:40.881Z,55.15
2023-04-10T18:54:08.723Z,55.50
2023-04-10T18:56:38.308Z,55.56
2023-04-10T18:59:05.966Z,55.13
2023-04-10T19:01:33.788Z,54.78
2023-04-10T19:04:01.806Z,55.54
2023-04-10T19:06:30.197Z,55.64
2023-04-10T19:08:57.748Z,56.56
2023-04-10T19:11:25.428Z,58.08
2023-04-10T19:13:54.723Z,56.79
2023-04-10T19:16:22.768Z,57.13
2023-04-10T19:18:50.386Z,56.19
2023-04-10T19:21:17.884Z,57.35
2023-04-10T19:23:46.438Z,58.57
2023-04-10T19:26:14.269Z,59.97
2023-04-10T19:28:41.754Z,60.19
2023-04-10T19:31:11.043Z,62.36
2023-04-10T19:33:38.524Z,62.63
2023-04-10T19:36:08.286Z,62.89
2023-04-10T19:38:36.163Z,63.42
2023-04-10T19:41:03.642Z,63.72
2023-04-10T19:43:31.221Z,64.27
2023-04-10T19:45:59.789Z,64.09
2023-04-10T19:48:28.627Z,65.30
2023-04-10T19:50:56.056Z,64.72
2023-04-10T19:53:23.483Z,65.51
2023-04-10T19:55:50.906Z,65.28
2023-04-10T19:58:38.948Z,65.99
2023-04-10T20:01:06.741Z,67.41
2023-04-10T20:03:36.686Z,67.36
2023-04-10T20:06:07.105Z,68.00
2023-04-10T20:08:35.495Z,68.75
2023-04-10T20:11:05.781Z,68.81
2023-04-10T20:13:34.290Z,69.47
2023-04-10T20:16:01.983Z,68.50
2023-04-10T20:18:29.448Z,70.24
2023-04-10T20:20:58.245Z,68.84
2023-04-10T20:23:25.690Z,69.13
2023-04-10T20:25:53.271Z,68.84
2023-04-10T20:28:20.718Z,69.71
2023-04-10T20:30:48.136Z,68.53
2023-04-10T20:33:15.746Z,68.67
2023-04-10T20:35:43.237Z,68.64
2023-04-10T20:38:12.034Z,68.33
2023-04-10T20:40:39.472Z,68.93
2023-04-10T20:43:10.890Z,69.36
2023-04-10T20:45:38.589Z,69.16
2023-04-10T20:48:06.731Z,68.44
2023-04-10T20:50:34.290Z,69.03
2023-04-10T20:53:01.718Z,70.11
2023-04-10T20:55:30.538Z,69.67
2023-04-10T20:57:58.515Z,70.11
2023-04-10T21:00:26.097Z,69.27
2023-04-10T21:02:53.687Z,69.54
2023-04-10T21:05:21.180Z,70.42
2023-04-10T21:07:48.934Z,69.65
2023-04-10T21:10:16.413Z,71.15
2023-04-10T21:12:45.253Z,70.49
2023-04-10T21:15:12.725Z,70.51
2023-04-10T21:17:40.252Z,70.70
2023-04-10T21:20:08.644Z,71.08
2023-04-10T21:22:36.223Z,71.63
2023-04-10T21:25:03.772Z,71.43
2023-04-10T21:27:31.260Z,72.62
2023-04-10T21:30:00.287Z,73.09
2023-04-10T21:32:27.832Z,72.11
2023-04-10T21:34:55.384Z,71.29
2023-04-10T21:37:22.835Z,71.53
2023-04-10T21:39:50.424Z,72.57
2023-04-10T21:42:19.319Z,72.00
2023-04-10T21:44:46.852Z,70.87
2023-04-10T21:47:15.661Z,71.67
2023-04-10T21:49:43.166Z,71.55
2023-04-10T21:52:13.557Z,71.86
2023-04-10T21:54:41.020Z,70.45
2023-04-10T21:57:08.611Z,71.16
2023-04-10T21:59:36.743Z,71.68
2023-04-10T22:02:04.281Z,71.50
2023-04-10T22:04:34.669Z,70.32
2023-04-10T22:07:05.480Z,69.71
2023-04-10T22:09:33.085Z,69.67
2023-04-10T22:12:00.641Z,70.33
2023-04-10T22:14:28.128Z,70.86
2023-04-10T22:16:56.530Z,71.18
2023-04-10T22:19:25.612Z,71.16
2023-04-10T22:21:54.448Z,70.87
2023-04-10T22:24:21.893Z,70.86
2023-04-10T22:26:49.365Z,71.79
2023-04-10T22:29:16.903Z,71.73
2023-04-10T22:31:44.940Z,71.76
2023-04-10T22:34:12.449Z,71.90
2023-04-10T22:36:39.960Z,70.82
2023-04-10T22:39:08.943Z,71.46
2023-04-10T22:41:36.420Z,71.19
2023-04-10T22:44:03.906Z,71.71
2023-04-10T22:46:31.426Z,72.08
2023-04-10T22:48:58.906Z,72.23
2023-04-10T22:51:27.258Z,70.71
2023-04-10T22:53:54.873Z,70.46
2023-04-10T22:56:26.362Z,70.88
2023-04-10T22:58:54.055Z,71.01
2023-04-10T23:01:21.779Z,71.87
2023-04-10T23:03:52.662Z,71.48
2023-04-10T23:06:20.590Z,71.81
2023-04-10T23:08:48.072Z,73.29
2023-04-10T23:11:15.557Z,73.33
2023-04-10T23:13:44.487Z,73.05
2023-04-10T23:16:12.183Z,72.65
2023-04-10T23:18:40.179Z,73.24
2023-04-10T23:21:08.304Z,73.42
2023-04-10T23:23:35.808Z,73.60
2023-04-10T23:26:03.598Z,73.82
2023-04-10T23:28:31.092Z,73.78
2023-04-10T23:31:00.059Z,73.97
2023-04-10T23:33:27.632Z,73.90
2023-04-10T23:35:55.278Z,74.07
2023-04-10T23:38:22.715Z,74.05
2023-04-10T23:40:50.161Z,73.23
2023-04-10T23:43:17.616Z,73.22
2023-04-10T23:45:45.091Z,72.90
2023-04-10T23:48:13.938Z,72.90
2023-04-10T23:50:41.516Z,72.91
2023-04-10T23:53:09.117Z,72.53
2023-04-10T23:55:36.678Z,72.44
2023-04-10T23:58:04.492Z,71.69
